Aérodrome :
LOGIN :

S'inscrire | Disclaimer

   EN    FR    IT 

 










Légende :    VFR   VFR Marginal   IFR   IFR Intensif   IFR Très Intensif
Visi : 
Plafond : 
>= 8 km
>= 3000ft
5 à 8 km
1000 à 3000 ft
1500m à 5 km
500 à 1000 ft
800 à 1500m
200 à 500 ft
< 800m
< 200 ft
Symboles :   Orages  Brouillard  Fortes neiges  Fortes précipitations  Vent > 20 kt
SIGMETs :   Divers  Orages  Givrage  Turbulence  Onde Orograph.  Cendres Volcan.







- Altitude de l'aérodrome : 309 ft
- Code IATA : FNI
- Voir les cartes d'approche


LFTW - Nîmes Garons

DERNIER METAR :
  • 270600Z AUTO 03005KT 9999 BKN020 11/04 Q1012 BECMG 18010KT

METARs EXPIRÉS :
  • 270530Z AUTO 04005KT 9999 BKN020 11/04 Q1012 BECMG 18010KT
  • 270500Z AUTO 04006KT CAVOK 10/03 Q1012 NOSIG
  • 270430Z AUTO 04004KT CAVOK 10/03 Q1012 NOSIG
  • 270400Z AUTO 04005KT CAVOK 11/03 Q1011 NOSIG
  • 270330Z AUTO 36005KT CAVOK 10/02 Q1012 NOSIG

TAF TAF LFTW
Valide du 27 à 03h jusqu'au 28 à 03h UTC


270200Z 2703/2803 01010KT CAVOK
BECMG 2707/2709 18010KT
TEMPO 2710/2712 BKN014
TEMPO 2722/2803 VRB02KT
BECMG 2800/2802 BKN010
TEMPO 2802/2803 4000 BR BKN008
Pas de NOTAMs connus pour ce terrain.



MET'MAP, la Météo Aéronautique d'un coup d'oeil ! - Copyright ORBIFLY Décembre 2007 - Disclaimer

ORBIFLY MET'MAP TEAM :

Programmation & Développement : Alexandra Zaïnal
Conception & Développement : Baudouin d'Aumeries
Co-Programmation & Développement : Marc-Olivier Méhu
Soutien technique & logistique : Manuel Goepfert

Contact : metmap@orbifly.com




SOURCES & CREDITS :

   NOAA